createdAt,value
2019-02-18T00:00:37.181Z,65.80
2019-02-18T00:03:06.612Z,65.20
2019-02-18T00:05:35.655Z,65.70
2019-02-18T00:08:04.405Z,66.00
2019-02-18T00:10:33.028Z,66.50
2019-02-18T00:13:01.612Z,67.30
2019-02-18T00:15:30.164Z,68.40
2019-02-18T00:17:59.108Z,69.20
2019-02-18T00:20:27.665Z,68.60
2019-02-18T00:22:56.266Z,67.80
2019-02-18T00:25:25.170Z,67.60
2019-02-18T00:27:53.761Z,67.20
2019-02-18T00:30:22.455Z,66.60
2019-02-18T00:32:51.091Z,65.70
2019-02-18T00:35:19.679Z,65.40
2019-02-18T00:37:48.315Z,65.90
2019-02-18T00:40:17.011Z,65.70
2019-02-18T00:42:45.558Z,66.30
2019-02-18T00:45:14.301Z,66.50
2019-02-18T00:47:42.974Z,66.40
2019-02-18T00:50:11.800Z,66.90
2019-02-18T00:52:40.419Z,67.30
2019-02-18T00:55:09.713Z,67.20
2019-02-18T00:57:38.478Z,67.60
2019-02-18T01:00:17.526Z,68.30
2019-02-18T01:02:46.341Z,68.60
2019-02-18T01:05:15.140Z,69.10
2019-02-18T01:07:43.711Z,70.30
2019-02-18T01:10:12.973Z,71.00
2019-02-18T01:12:41.558Z,71.50
2019-02-18T01:15:14.504Z,70.50
2019-02-18T01:17:43.106Z,69.20
2019-02-18T01:20:13.759Z,67.40
2019-02-18T01:22:42.328Z,66.50
2019-02-18T01:25:12.894Z,64.60
2019-02-18T01:27:41.660Z,63.20
2019-02-18T01:30:16.611Z,62.20
2019-02-18T01:32:45.180Z,62.80
2019-02-18T01:35:14.018Z,64.70
2019-02-18T01:37:45.928Z,66.20
2019-02-18T01:40:14.657Z,67.10
2019-02-18T01:42:43.217Z,67.10
2019-02-18T01:45:13.900Z,67.10
2019-02-18T01:47:42.480Z,66.60
2019-02-18T01:50:13.292Z,67.10
2019-02-18T01:52:41.844Z,67.60
2019-02-18T01:55:11.977Z,67.40
2019-02-18T01:57:40.810Z,68.20
2019-02-18T02:00:12.141Z,69.00
2019-02-18T02:02:40.718Z,69.70
2019-02-18T02:05:10.282Z,69.40
2019-02-18T02:07:38.862Z,69.60
2019-02-18T02:10:10.452Z,69.50
2019-02-18T02:12:39.316Z,69.20
2019-02-18T02:15:17.160Z,69.40
2019-02-18T02:17:45.751Z,68.80
2019-02-18T02:20:14.371Z,68.20
2019-02-18T02:22:42.960Z,69.10
2019-02-18T02:25:11.654Z,69.10
2019-02-18T02:27:40.235Z,68.80
2019-02-18T02:30:10.159Z,68.80
2019-02-18T02:32:38.705Z,67.60
2019-02-18T02:35:07.348Z,67.60
2019-02-18T02:37:36.248Z,67.60
2019-02-18T02:40:07.761Z,67.10
2019-02-18T02:42:36.388Z,66.80
2019-02-18T02:45:06.703Z,66.50
2019-02-18T02:47:35.264Z,66.00
2019-02-18T02:50:05.042Z,66.70
2019-02-18T02:52:33.597Z,67.40
2019-02-18T02:55:02.172Z,69.10
2019-02-18T02:57:30.729Z,70.10
2019-02-18T03:00:00.680Z,71.00
2019-02-18T03:02:29.252Z,72.20
2019-02-18T03:04:57.814Z,73.50
2019-02-18T03:07:26.384Z,74.40
2019-02-18T03:09:54.948Z,75.30
2019-02-18T03:12:24.133Z,75.80
2019-02-18T03:14:52.692Z,76.50
2019-02-18T03:17:21.269Z,77.00
2019-02-18T03:19:49.827Z,79.10
2019-02-18T03:22:18.581Z,78.80
2019-02-18T03:25:16.084Z,79.60
2019-02-18T03:27:44.667Z,80.10
2019-02-18T03:30:35.799Z,80.50
2019-02-18T03:33:06.615Z,80.10
2019-02-18T03:35:35.291Z,79.80
2019-02-18T03:38:03.871Z,78.40
2019-02-18T03:40:32.495Z,77.20
2019-02-18T03:43:01.056Z,76.50
2019-02-18T03:45:29.747Z,77.00
2019-02-18T03:47:58.306Z,75.10
2019-02-18T03:50:26.970Z,74.20
2019-02-18T03:52:55.526Z,74.50
2019-02-18T03:55:24.246Z,75.10
2019-02-18T03:57:52.879Z,76.40
2019-02-18T04:00:21.453Z,77.90
2019-02-18T04:02:50.183Z,78.80
2019-02-18T04:05:18.924Z,79.40
2019-02-18T04:07:47.481Z,79.40
2019-02-18T04:10:16.045Z,78.80
2019-02-18T04:12:44.607Z,77.80
2019-02-18T04:15:17.288Z,79.10
2019-02-18T04:17:45.959Z,81.20
2019-02-18T04:20:14.453Z,82.90
2019-02-18T04:22:43.044Z,83.90
2019-02-18T04:25:11.828Z,84.70
2019-02-18T04:27:40.424Z,84.70
2019-02-18T04:30:13.535Z,85.70
2019-02-18T04:32:41.671Z,81.50
2019-02-18T04:35:10.635Z,78.50
2019-02-18T04:37:39.256Z,75.70
2019-02-18T04:40:08.778Z,74.80
2019-02-18T04:42:37.323Z,75.30
2019-02-18T04:45:08.643Z,76.10
2019-02-18T04:47:37.188Z,77.20
2019-02-18T04:50:07.506Z,77.70
2019-02-18T04:52:36.047Z,77.90
2019-02-18T04:55:08.174Z,77.50
2019-02-18T04:57:36.722Z,76.60
2019-02-18T05:00:08.473Z,75.90
2019-02-18T05:02:37.312Z,76.30
2019-02-18T05:05:08.474Z,75.30
2019-02-18T05:07:37.053Z,74.80
2019-02-18T05:10:08.617Z,75.10
2019-02-18T05:12:37.188Z,76.10
2019-02-18T05:15:07.973Z,76.40
2019-02-18T05:17:36.555Z,76.70
2019-02-18T05:20:08.926Z,77.20
2019-02-18T05:22:37.503Z,77.20
2019-02-18T05:25:07.692Z,77.50
2019-02-18T05:27:36.307Z,77.80
2019-02-18T05:30:07.524Z,78.80
2019-02-18T05:32:36.114Z,79.40
2019-02-18T05:35:05.616Z,79.70
2019-02-18T05:37:34.279Z,79.90
2019-02-18T05:40:02.834Z,79.50
2019-02-18T05:42:31.425Z,79.00
2019-02-18T05:44:59.992Z,78.40
2019-02-18T05:47:28.548Z,78.00
2019-02-18T05:49:57.125Z,78.20
2019-02-18T05:52:25.690Z,79.20
2019-02-18T05:54:54.742Z,79.60
2019-02-18T05:57:23.297Z,81.50
2019-02-18T05:59:51.890Z,82.40
2019-02-18T06:02:21.833Z,84.10
2019-02-18T06:04:50.420Z,84.00
2019-02-18T06:07:18.974Z,84.00
2019-02-18T06:09:47.531Z,83.00
2019-02-18T06:12:16.109Z,82.00
2019-02-18T06:14:44.672Z,81.70
2019-02-18T06:17:13.265Z,80.80
2019-02-18T06:19:42.192Z,81.90
2019-02-18T06:22:11.079Z,81.00
2019-02-18T06:24:39.639Z,80.80
2019-02-18T06:27:08.225Z,80.50
2019-02-18T06:29:36.764Z,80.70
2019-02-18T06:32:05.409Z,80.60
2019-02-18T06:34:34.053Z,80.60
2019-02-18T06:37:02.658Z,80.20
2019-02-18T06:39:40.945Z,81.90
2019-02-18T06:42:01.464Z,83.10
2019-02-18T06:44:31.797Z,84.00
2019-02-18T06:47:01.968Z,83.20
2019-02-18T06:49:30.613Z,83.90
2019-02-18T06:51:59.181Z,83.30
2019-02-18T06:54:27.766Z,79.40
2019-02-18T06:57:01.007Z,71.60
2019-02-18T06:59:37.015Z,60.20
2019-02-18T07:02:13.356Z,54.20
2019-02-18T07:04:59.926Z,49.90
2019-02-18T07:07:32.958Z,45.40
2019-02-18T07:10:03.463Z,44.10
2019-02-18T07:12:33.662Z,46.00
2019-02-18T07:15:02.259Z,50.00
2019-02-18T07:17:30.991Z,52.20
2019-02-18T07:19:59.596Z,53.30
2019-02-18T07:22:28.163Z,53.60
2019-02-18T07:24:56.724Z,53.50
2019-02-18T07:27:25.312Z,52.60
2019-02-18T07:29:53.875Z,51.70
2019-02-18T07:32:22.532Z,50.00
2019-02-18T07:34:51.132Z,47.10
2019-02-18T07:37:19.723Z,45.20
2019-02-18T07:39:48.320Z,44.20
2019-02-18T07:42:16.915Z,43.70
2019-02-18T07:44:45.506Z,42.40
2019-02-18T07:47:14.107Z,41.70
2019-02-18T07:49:42.670Z,39.90
2019-02-18T07:52:11.251Z,38.20
2019-02-18T07:54:39.847Z,35.90
2019-02-18T07:57:08.417Z,34.60
2019-02-18T07:59:37.100Z,32.80
2019-02-18T08:02:05.757Z,30.40
2019-02-18T08:04:34.350Z,29.30
2019-02-18T08:07:02.939Z,29.80
2019-02-18T08:09:31.541Z,29.40
2019-02-18T08:12:00.128Z,28.80
2019-02-18T08:14:28.680Z,30.20
2019-02-18T08:16:57.283Z,30.60
2019-02-18T08:19:25.852Z,31.40
2019-02-18T08:21:54.471Z,30.20
2019-02-18T08:24:23.040Z,29.40
2019-02-18T08:26:51.657Z,28.50
2019-02-18T08:29:20.346Z,27.50
2019-02-18T08:31:48.939Z,26.60
2019-02-18T08:34:17.522Z,25.00
2019-02-18T08:36:46.106Z,22.70
2019-02-18T08:39:14.768Z,22.40
2019-02-18T08:41:43.494Z,21.90
2019-02-18T08:44:12.133Z,21.30
2019-02-18T08:46:40.712Z,21.80
2019-02-18T08:49:09.299Z,22.50
2019-02-18T08:51:37.873Z,23.30
2019-02-18T08:54:06.468Z,22.80
2019-02-18T08:56:35.035Z,22.00
2019-02-18T08:59:03.622Z,21.40
2019-02-18T09:01:32.198Z,20.70
2019-02-18T09:04:02.832Z,20.00
2019-02-18T09:06:31.397Z,19.40
2019-02-18T09:09:00.019Z,19.10
2019-02-18T09:11:28.585Z,18.40
2019-02-18T09:13:57.155Z,17.70
2019-02-18T09:16:25.933Z,17.30
2019-02-18T09:18:54.598Z,17.50
2019-02-18T09:21:23.217Z,16.60
2019-02-18T09:23:56.158Z,16.20
2019-02-18T09:26:24.726Z,15.90
2019-02-18T09:28:53.362Z,15.70
2019-02-18T09:31:23.615Z,16.40
2019-02-18T09:33:52.692Z,16.10
2019-02-18T09:36:21.518Z,16.10
2019-02-18T09:38:50.230Z,16.40
2019-02-18T09:41:18.847Z,15.60
2019-02-18T09:43:47.489Z,15.40
2019-02-18T09:46:16.131Z,16.20
2019-02-18T09:48:44.727Z,16.30
2019-02-18T09:51:13.338Z,16.60
2019-02-18T09:53:41.949Z,16.70
2019-02-18T09:56:10.625Z,16.20
2019-02-18T09:58:39.218Z,15.50
2019-02-18T10:01:07.865Z,14.80
2019-02-18T10:03:36.466Z,14.40
2019-02-18T10:06:05.213Z,14.00
2019-02-18T10:08:33.840Z,14.40
2019-02-18T10:11:02.490Z,14.90
2019-02-18T10:13:31.054Z,14.30
2019-02-18T10:15:59.654Z,14.60
2019-02-18T10:18:28.230Z,14.40
2019-02-18T10:20:56.840Z,14.10
2019-02-18T10:23:25.419Z,13.80
2019-02-18T10:25:54.075Z,13.60
2019-02-18T10:28:22.660Z,13.60
2019-02-18T10:30:51.529Z,13.80
2019-02-18T10:33:20.229Z,14.00
2019-02-18T10:35:48.895Z,14.30
2019-02-18T10:38:17.490Z,14.30
2019-02-18T10:40:46.086Z,14.10
2019-02-18T10:43:14.682Z,13.40
2019-02-18T10:45:43.268Z,14.40
2019-02-18T10:48:11.867Z,14.10
2019-02-18T10:50:40.868Z,13.80
2019-02-18T10:53:09.543Z,13.40
2019-02-18T10:55:38.128Z,13.40
2019-02-18T10:58:06.723Z,13.10
2019-02-18T11:06:46.335Z,12.90
2019-02-18T11:09:43.484Z,12.10
2019-02-18T11:12:12.839Z,12.00
2019-02-18T11:14:41.647Z,12.20
2019-02-18T11:17:15.558Z,12.30
2019-02-18T11:22:46.537Z,12.40
2019-02-18T11:25:16.009Z,12.30
2019-02-18T11:27:48.019Z,12.10
2019-02-18T11:30:39.342Z,12.50
2019-02-18T11:33:07.980Z,12.30
2019-02-18T11:35:36.542Z,12.50
2019-02-18T11:38:05.128Z,12.50
2019-02-18T11:40:34.092Z,13.00
2019-02-18T11:43:02.684Z,13.50
2019-02-18T11:45:31.249Z,13.90
2019-02-18T11:47:59.829Z,14.90
2019-02-18T11:50:28.384Z,17.00
2019-02-18T11:52:56.972Z,18.30
2019-02-18T11:55:25.901Z,19.40
2019-02-18T11:57:54.552Z,20.50
2019-02-18T12:00:23.118Z,21.20
2019-02-18T12:02:51.744Z,22.10
2019-02-18T12:05:20.689Z,22.40
2019-02-18T12:07:49.254Z,22.80
2019-02-18T12:10:17.913Z,23.00
2019-02-18T12:12:46.472Z,23.70
2019-02-18T12:15:15.960Z,24.50
2019-02-18T12:17:44.575Z,24.00
2019-02-18T12:20:14.197Z,25.00
2019-02-18T12:22:42.758Z,25.30
2019-02-18T12:25:12.847Z,25.90
2019-02-18T12:27:43.338Z,25.90
2019-02-18T12:30:13.865Z,26.50
2019-02-18T12:32:42.495Z,27.80
2019-02-18T12:35:11.455Z,28.00
2019-02-18T12:37:40.100Z,28.00
2019-02-18T12:40:10.524Z,27.90
2019-02-18T12:42:39.084Z,27.70
2019-02-18T12:45:10.220Z,28.10
2019-02-18T12:47:38.774Z,28.70
2019-02-18T12:50:09.132Z,29.10
2019-02-18T12:52:37.816Z,29.40
2019-02-18T12:55:08.552Z,29.40
2019-02-18T12:57:37.465Z,30.00
2019-02-18T13:00:16.174Z,29.80
2019-02-18T13:02:45.244Z,30.00
2019-02-18T13:05:14.410Z,30.60
2019-02-18T13:07:42.975Z,31.10
2019-02-18T13:10:12.101Z,30.60
2019-02-18T13:12:41.225Z,31.50
2019-02-18T13:15:17.820Z,31.30
2019-02-18T13:17:46.403Z,31.20
2019-02-18T13:20:14.980Z,31.10
2019-02-18T13:22:43.630Z,31.80
2019-02-18T13:25:12.356Z,31.50
2019-02-18T13:27:40.977Z,31.60
2019-02-18T13:30:12.364Z,31.80
2019-02-18T13:32:41.008Z,32.10
2019-02-18T13:35:09.828Z,32.00
2019-02-18T13:37:38.503Z,32.00
2019-02-18T13:40:07.786Z,32.80
2019-02-18T13:42:36.344Z,32.10
2019-02-18T13:45:07.282Z,32.00
2019-02-18T13:47:36.193Z,32.40
2019-02-18T13:50:08.469Z,32.30
2019-02-18T13:52:37.034Z,32.70
2019-02-18T13:55:07.939Z,33.10
2019-02-18T13:57:36.632Z,33.00
2019-02-18T14:00:20.942Z,33.20
2019-02-18T14:02:50.632Z,33.50
2019-02-18T14:05:21.041Z,34.10
2019-02-18T14:07:49.700Z,33.60
2019-02-18T14:10:19.105Z,33.80
2019-02-18T14:12:47.822Z,34.20
2019-02-18T14:15:17.251Z,34.70
2019-02-18T14:17:46.020Z,34.90
2019-02-18T14:20:15.735Z,34.50
2019-02-18T14:22:44.364Z,34.70
2019-02-18T14:25:14.559Z,34.90
2019-02-18T14:27:43.082Z,34.70
2019-02-18T14:30:18.941Z,35.50
2019-02-18T14:32:47.623Z,35.70
2019-02-18T14:35:21.083Z,35.60
2019-02-18T14:37:51.289Z,35.90
2019-02-18T14:40:21.462Z,35.80
2019-02-18T14:42:50.018Z,36.10
2019-02-18T14:45:19.201Z,37.80
2019-02-18T14:47:47.821Z,36.00
2019-02-18T14:50:18.424Z,36.00
2019-02-18T14:52:48.291Z,36.30
2019-02-18T14:55:17.043Z,36.70
2019-02-18T14:57:45.762Z,37.00
2019-02-18T15:00:23.009Z,37.20
2019-02-18T15:02:53.398Z,37.00
2019-02-18T15:05:22.595Z,36.60
2019-02-18T15:07:51.255Z,36.20
2019-02-18T15:10:19.888Z,36.20
2019-02-18T15:12:48.608Z,36.40
2019-02-18T15:15:17.244Z,35.50
2019-02-18T15:17:46.149Z,36.10
2019-02-18T15:20:14.848Z,37.00
2019-02-18T15:22:43.432Z,36.30
2019-02-18T15:25:12.163Z,36.80
2019-02-18T15:27:41.055Z,36.80
2019-02-18T15:30:13.360Z,36.70
2019-02-18T15:32:41.953Z,36.70
2019-02-18T15:35:10.581Z,36.70
2019-02-18T15:37:39.172Z,36.20
2019-02-18T15:40:13.269Z,36.90
2019-02-18T15:42:42.790Z,36.20
2019-02-18T15:45:11.736Z,36.10
2019-02-18T15:47:40.347Z,36.60
2019-02-18T15:50:13.081Z,36.40
2019-02-18T15:52:41.647Z,36.40
2019-02-18T15:55:11.410Z,36.80
2019-02-18T15:57:39.968Z,35.60
2019-02-18T16:00:14.136Z,36.50
2019-02-18T16:02:42.692Z,36.90
2019-02-18T16:05:11.383Z,37.40
2019-02-18T16:07:41.220Z,36.30
2019-02-18T16:10:10.749Z,36.90
2019-02-18T16:12:39.674Z,37.00
2019-02-18T16:15:10.191Z,36.60
2019-02-18T16:17:39.047Z,36.70
2019-02-18T16:20:13.131Z,36.70
2019-02-18T16:22:41.788Z,37.70
2019-02-18T16:25:21.611Z,36.60
2019-02-18T16:27:50.272Z,36.90
2019-02-18T16:30:18.832Z,37.50
2019-02-18T16:32:47.601Z,39.70
2019-02-18T16:35:16.164Z,38.90
2019-02-18T16:37:44.732Z,39.40
2019-02-18T16:40:15.749Z,40.20
2019-02-18T16:42:44.648Z,39.60
2019-02-18T16:45:15.991Z,39.20
2019-02-18T16:47:44.552Z,39.70
2019-02-18T16:50:13.219Z,40.30
2019-02-18T16:52:41.972Z,41.00
2019-02-18T16:55:13.099Z,40.80
2019-02-18T16:57:41.760Z,40.90
2019-02-18T17:00:21.148Z,41.40
2019-02-18T17:02:51.013Z,41.60
2019-02-18T17:05:19.897Z,41.70
2019-02-18T17:07:48.472Z,41.90
2019-02-18T17:10:17.428Z,42.60
2019-02-18T17:12:46.503Z,42.50
2019-02-18T17:15:15.144Z,42.30
2019-02-18T17:17:43.797Z,41.90
2019-02-18T17:20:12.425Z,42.50
2019-02-18T17:22:41.091Z,42.70
2019-02-18T17:25:11.125Z,42.80
2019-02-18T17:27:39.864Z,43.40
2019-02-18T17:30:14.444Z,42.90
2019-02-18T17:32:43.488Z,43.00
2019-02-18T17:35:13.319Z,43.10
2019-02-18T17:37:41.886Z,42.90
2019-02-18T17:40:12.468Z,42.20
2019-02-18T17:42:41.646Z,42.00
2019-02-18T17:45:13.457Z,42.00
2019-02-18T17:47:42.168Z,42.70
2019-02-18T17:50:15.809Z,42.20
2019-02-18T17:52:44.983Z,41.00
2019-02-18T17:55:16.290Z,42.40
2019-02-18T17:57:45.027Z,43.00
2019-02-18T18:00:21.613Z,43.70
2019-02-18T18:02:50.264Z,44.50
2019-02-18T18:05:18.888Z,45.00
2019-02-18T18:07:47.673Z,45.70
2019-02-18T18:10:16.600Z,45.80
2019-02-18T18:12:45.417Z,46.70
2019-02-18T18:15:16.566Z,47.90
2019-02-18T18:17:45.152Z,47.30
2019-02-18T18:20:14.555Z,47.10
2019-02-18T18:22:43.263Z,46.40
2019-02-18T18:25:14.729Z,45.80
2019-02-18T18:27:43.311Z,45.10
2019-02-18T18:30:14.128Z,44.60
2019-02-18T18:32:42.689Z,44.50
2019-02-18T18:35:12.508Z,44.90
2019-02-18T18:37:41.222Z,46.40
2019-02-18T18:40:15.845Z,47.90
2019-02-18T18:42:44.480Z,48.70
2019-02-18T18:45:15.712Z,48.80
2019-02-18T18:47:44.353Z,49.10
2019-02-18T18:50:15.372Z,48.90
2019-02-18T18:52:44.251Z,48.90
2019-02-18T18:55:13.220Z,48.90
2019-02-18T18:57:41.976Z,48.80
2019-02-18T19:00:25.073Z,49.80
2019-02-18T19:02:53.624Z,50.40
2019-02-18T19:05:22.479Z,50.60
2019-02-18T19:07:51.056Z,50.60
2019-02-18T19:10:19.683Z,50.00
2019-02-18T19:12:48.358Z,49.30
2019-02-18T19:15:18.156Z,49.10
2019-02-18T19:17:46.816Z,48.80
2019-02-18T19:20:15.669Z,47.70
2019-02-18T19:22:44.546Z,46.80
2019-02-18T19:25:13.268Z,46.50
2019-02-18T19:27:41.895Z,46.60
2019-02-18T19:30:22.178Z,46.60
2019-02-18T19:32:51.034Z,47.00
2019-02-18T19:35:19.613Z,47.80
2019-02-18T19:37:48.170Z,48.40
2019-02-18T19:40:16.859Z,47.60
2019-02-18T19:42:45.472Z,47.60
2019-02-18T19:45:23.968Z,47.70
2019-02-18T19:47:52.523Z,48.20
2019-02-18T19:50:21.109Z,49.20
2019-02-18T19:52:49.651Z,50.60
2019-02-18T19:55:18.384Z,51.70
2019-02-18T19:57:46.956Z,52.80
2019-02-18T20:00:19.973Z,53.40
2019-02-18T20:02:48.994Z,53.30
2019-02-18T20:05:17.591Z,54.20
2019-02-18T20:07:46.238Z,54.40
2019-02-18T20:10:14.937Z,55.00
2019-02-18T20:12:43.909Z,55.70
2019-02-18T20:15:14.103Z,56.50
2019-02-18T20:17:42.794Z,56.80
2019-02-18T20:20:16.561Z,57.50
2019-02-18T20:22:45.144Z,58.10
2019-02-18T20:25:13.893Z,59.20
2019-02-18T20:27:42.527Z,59.90
2019-02-18T20:30:14.002Z,60.70
2019-02-18T20:32:42.567Z,61.10
2019-02-18T20:35:11.680Z,62.30
2019-02-18T20:37:40.380Z,63.60
2019-02-18T20:40:10.391Z,64.70
2019-02-18T20:42:39.744Z,65.50
2019-02-18T20:45:14.940Z,65.90
2019-02-18T20:47:43.563Z,65.80
2019-02-18T20:50:13.529Z,66.90
2019-02-18T20:52:42.297Z,66.10
2019-02-18T20:55:15.683Z,66.10
2019-02-18T20:57:44.232Z,66.70
2019-02-18T21:00:20.601Z,67.50
2019-02-18T21:02:49.621Z,68.10
2019-02-18T21:05:18.621Z,68.40
2019-02-18T21:07:47.311Z,67.70
2019-02-18T21:10:18.602Z,67.00
2019-02-18T21:12:47.241Z,66.00
2019-02-18T21:15:16.028Z,65.10
2019-02-18T21:17:44.608Z,64.80
2019-02-18T21:20:14.406Z,64.10
2019-02-18T21:22:43.167Z,63.30
2019-02-18T21:25:12.178Z,62.50
2019-02-18T21:27:40.841Z,61.60
2019-02-18T21:30:12.679Z,61.10
2019-02-18T21:32:41.340Z,61.40
2019-02-18T21:35:10.264Z,61.60
2019-02-18T21:37:38.902Z,61.90
2019-02-18T21:40:13.724Z,62.20
2019-02-18T21:42:42.279Z,62.60
2019-02-18T21:45:17.128Z,62.60
2019-02-18T21:47:45.684Z,62.70
2019-02-18T21:50:14.260Z,63.10
2019-02-18T21:52:42.891Z,62.50
2019-02-18T21:55:13.178Z,61.80
2019-02-18T21:57:41.742Z,62.30
2019-02-18T22:00:20.067Z,63.80
2019-02-18T22:02:48.894Z,64.20
2019-02-18T22:05:18.089Z,65.50
2019-02-18T22:07:46.738Z,64.20
2019-02-18T22:10:15.913Z,64.00
2019-02-18T22:12:44.635Z,63.50
2019-02-18T22:15:14.898Z,63.10
2019-02-18T22:17:44.021Z,63.00
2019-02-18T22:20:14.136Z,63.50
2019-02-18T22:22:42.779Z,63.20
2019-02-18T22:25:12.844Z,63.10
2019-02-18T22:27:41.596Z,63.40
2019-02-18T22:30:13.484Z,62.80
2019-02-18T22:32:42.205Z,62.10
2019-02-18T22:35:10.929Z,61.60
2019-02-18T22:37:39.480Z,61.10
2019-02-18T22:40:12.891Z,61.40
2019-02-18T22:42:41.525Z,62.70
2019-02-18T22:45:11.789Z,61.80
2019-02-18T22:47:40.412Z,61.80
2019-02-18T22:50:10.928Z,61.90
2019-02-18T22:52:40.130Z,62.20
2019-02-18T22:55:10.270Z,62.60
2019-02-18T22:57:39.000Z,62.60
2019-02-18T23:00:13.592Z,62.70
2019-02-18T23:02:44.860Z,62.30
2019-02-18T23:05:13.903Z,61.90
2019-02-18T23:07:42.523Z,62.40
2019-02-18T23:10:11.076Z,63.50
2019-02-18T23:12:39.657Z,64.80
2019-02-18T23:15:08.284Z,65.40
2019-02-18T23:17:37.260Z,65.30
2019-02-18T23:20:06.073Z,66.50
2019-02-18T23:22:34.890Z,67.70
2019-02-18T23:25:03.549Z,68.50
2019-02-18T23:27:32.124Z,69.60
2019-02-18T23:30:00.680Z,69.60
2019-02-18T23:32:30.448Z,69.00
2019-02-18T23:34:59.010Z,69.00
2019-02-18T23:37:27.993Z,69.60
2019-02-18T23:39:56.548Z,70.00
2019-02-18T23:42:25.555Z,70.70
2019-02-18T23:44:59.260Z,70.90
2019-02-18T23:47:24.404Z,70.50
2019-02-18T23:49:52.965Z,69.70
2019-02-18T23:52:21.520Z,69.10
2019-02-18T23:54:50.096Z,68.20
2019-02-18T23:57:18.657Z,67.90
2019-02-18T23:59:47.300Z,67.70
